sensor_id;sensor_type;location;lat;lon;timestamp;temperature;humidity
53645;DHT22;39547;45.554;12.068;2022-08-21T00:00:28;23.50;67.00
53645;DHT22;39547;45.554;12.068;2022-08-21T00:06:30;23.40;67.30
53645;DHT22;39547;45.554;12.068;2022-08-21T00:12:31;23.30;67.30
53645;DHT22;39547;45.554;12.068;2022-08-21T00:18:32;23.30;67.40
53645;DHT22;39547;45.554;12.068;2022-08-21T00:24:34;23.20;67.70
53645;DHT22;39547;45.554;12.068;2022-08-21T00:30:35;23.10;67.80
53645;DHT22;39547;45.554;12.068;2022-08-21T00:36:36;23.10;67.80
53645;DHT22;39547;45.554;12.068;2022-08-21T00:42:38;23.10;68.00
53645;DHT22;39547;45.554;12.068;2022-08-21T00:48:39;23.00;67.90
53645;DHT22;39547;45.554;12.068;2022-08-21T00:54:41;22.90;67.80
53645;DHT22;39547;45.554;12.068;2022-08-21T01:00:44;22.90;68.20
53645;DHT22;39547;45.554;12.068;2022-08-21T01:06:46;22.90;68.10
53645;DHT22;39547;45.554;12.068;2022-08-21T01:12:47;22.80;68.30
53645;DHT22;39547;45.554;12.068;2022-08-21T01:18:48;22.70;68.10
53645;DHT22;39547;45.554;12.068;2022-08-21T01:24:50;22.70;68.50
53645;DHT22;39547;45.554;12.068;2022-08-21T01:30:51;22.70;68.70
53645;DHT22;39547;45.554;12.068;2022-08-21T01:36:54;22.70;68.70
53645;DHT22;39547;45.554;12.068;2022-08-21T01:42:55;22.60;69.00
53645;DHT22;39547;45.554;12.068;2022-08-21T01:48:57;22.60;69.20
53645;DHT22;39547;45.554;12.068;2022-08-21T01:54:58;22.50;69.20
53645;DHT22;39547;45.554;12.068;2022-08-21T02:01:00;22.40;69.60
53645;DHT22;39547;45.554;12.068;2022-08-21T02:07:02;22.40;69.80
53645;DHT22;39547;45.554;12.068;2022-08-21T02:13:04;22.30;69.90
53645;DHT22;39547;45.554;12.068;2022-08-21T02:19:05;22.20;70.80
53645;DHT22;39547;45.554;12.068;2022-08-21T02:25:07;22.20;71.10
53645;DHT22;39547;45.554;12.068;2022-08-21T02:31:08;22.00;70.70
53645;DHT22;39547;45.554;12.068;2022-08-21T02:37:11;22.00;71.00
53645;DHT22;39547;45.554;12.068;2022-08-21T02:43:13;22.10;71.20
53645;DHT22;39547;45.554;12.068;2022-08-21T02:49:15;22.10;71.20
53645;DHT22;39547;45.554;12.068;2022-08-21T02:55:17;22.00;71.40
53645;DHT22;39547;45.554;12.068;2022-08-21T03:01:18;21.90;71.70
53645;DHT22;39547;45.554;12.068;2022-08-21T03:07:20;21.90;71.70
53645;DHT22;39547;45.554;12.068;2022-08-21T03:13:21;21.90;71.90
53645;DHT22;39547;45.554;12.068;2022-08-21T03:19:22;21.80;72.10
53645;DHT22;39547;45.554;12.068;2022-08-21T03:25:24;21.80;72.30
53645;DHT22;39547;45.554;12.068;2022-08-21T03:31:25;21.80;72.40
53645;DHT22;39547;45.554;12.068;2022-08-21T03:37:31;21.70;72.60
53645;DHT22;39547;45.554;12.068;2022-08-21T03:43:33;21.70;72.70
53645;DHT22;39547;45.554;12.068;2022-08-21T03:49:34;21.70;72.90
53645;DHT22;39547;45.554;12.068;2022-08-21T03:55:35;21.60;73.00
53645;DHT22;39547;45.554;12.068;2022-08-21T04:01:37;21.50;73.20
53645;DHT22;39547;45.554;12.068;2022-08-21T04:07:39;21.50;73.40
53645;DHT22;39547;45.554;12.068;2022-08-21T04:13:40;21.40;73.60
53645;DHT22;39547;45.554;12.068;2022-08-21T04:19:42;21.40;73.80
53645;DHT22;39547;45.554;12.068;2022-08-21T04:25:43;21.30;73.70
53645;DHT22;39547;45.554;12.068;2022-08-21T04:31:44;21.40;73.80
53645;DHT22;39547;45.554;12.068;2022-08-21T04:37:46;21.30;73.80
53645;DHT22;39547;45.554;12.068;2022-08-21T04:43:47;21.30;74.10
53645;DHT22;39547;45.554;12.068;2022-08-21T04:49:48;21.30;74.00
53645;DHT22;39547;45.554;12.068;2022-08-21T04:55:50;21.40;74.00
53645;DHT22;39547;45.554;12.068;2022-08-21T05:01:53;21.40;73.90
53645;DHT22;39547;45.554;12.068;2022-08-21T05:07:59;21.40;74.10
53645;DHT22;39547;45.554;12.068;2022-08-21T05:14:01;21.40;74.10
53645;DHT22;39547;45.554;12.068;2022-08-21T05:20:03;21.50;73.90
53645;DHT22;39547;45.554;12.068;2022-08-21T05:26:04;21.60;73.90
53645;DHT22;39547;45.554;12.068;2022-08-21T05:32:10;21.60;73.80
53645;DHT22;39547;45.554;12.068;2022-08-21T05:38:12;21.70;73.80
53645;DHT22;39547;45.554;12.068;2022-08-21T05:44:13;21.80;73.60
53645;DHT22;39547;45.554;12.068;2022-08-21T05:50:15;21.80;73.40
53645;DHT22;39547;45.554;12.068;2022-08-21T05:56:16;22.00;72.60
53645;DHT22;39547;45.554;12.068;2022-08-21T06:02:18;22.10;72.20
53645;DHT22;39547;45.554;12.068;2022-08-21T06:08:20;22.30;71.60
53645;DHT22;39547;45.554;12.068;2022-08-21T06:14:22;22.40;71.50
53645;DHT22;39547;45.554;12.068;2022-08-21T06:20:23;22.70;71.50
53645;DHT22;39547;45.554;12.068;2022-08-21T06:26:24;22.80;71.10
53645;DHT22;39547;45.554;12.068;2022-08-21T06:32:25;23.00;70.90
53645;DHT22;39547;45.554;12.068;2022-08-21T06:38:27;23.20;70.50
53645;DHT22;39547;45.554;12.068;2022-08-21T06:44:29;23.30;70.00
53645;DHT22;39547;45.554;12.068;2022-08-21T06:50:31;23.50;69.50
53645;DHT22;39547;45.554;12.068;2022-08-21T06:56:32;23.70;69.30
53645;DHT22;39547;45.554;12.068;2022-08-21T07:02:34;23.80;69.20
53645;DHT22;39547;45.554;12.068;2022-08-21T07:08:35;23.90;68.50
53645;DHT22;39547;45.554;12.068;2022-08-21T07:14:37;24.10;68.40
53645;DHT22;39547;45.554;12.068;2022-08-21T07:20:39;24.30;66.90
53645;DHT22;39547;45.554;12.068;2022-08-21T07:26:40;24.40;67.10
53645;DHT22;39547;45.554;12.068;2022-08-21T07:32:41;24.60;66.70
53645;DHT22;39547;45.554;12.068;2022-08-21T07:38:42;24.80;66.70
53645;DHT22;39547;45.554;12.068;2022-08-21T07:44:44;25.10;65.40
53645;DHT22;39547;45.554;12.068;2022-08-21T07:50:45;25.30;65.30
53645;DHT22;39547;45.554;12.068;2022-08-21T07:56:46;25.50;63.70
53645;DHT22;39547;45.554;12.068;2022-08-21T08:02:48;25.70;63.70
53645;DHT22;39547;45.554;12.068;2022-08-21T08:08:54;25.80;63.80
53645;DHT22;39547;45.554;12.068;2022-08-21T08:14:56;26.20;63.50
53645;DHT22;39547;45.554;12.068;2022-08-21T08:20:57;26.30;63.20
53645;DHT22;39547;45.554;12.068;2022-08-21T08:26:59;26.60;62.90
53645;DHT22;39547;45.554;12.068;2022-08-21T08:33:00;26.80;62.40
53645;DHT22;39547;45.554;12.068;2022-08-21T08:39:02;27.00;62.10
53645;DHT22;39547;45.554;12.068;2022-08-21T08:45:09;27.20;59.00
53645;DHT22;39547;45.554;12.068;2022-08-21T08:51:13;27.20;55.30
53645;DHT22;39547;45.554;12.068;2022-08-21T08:57:16;27.30;57.50
53645;DHT22;39547;45.554;12.068;2022-08-21T09:03:18;27.60;57.50
53645;DHT22;39547;45.554;12.068;2022-08-21T09:22:05;28.20;54.70
53645;DHT22;39547;45.554;12.068;2022-08-21T09:28:02;28.40;55.50
53645;DHT22;39547;45.554;12.068;2022-08-21T09:34:05;28.70;55.00
53645;DHT22;39547;45.554;12.068;2022-08-21T09:40:15;28.90;54.40
53645;DHT22;39547;45.554;12.068;2022-08-21T09:46:22;29.10;51.80
53645;DHT22;39547;45.554;12.068;2022-08-21T09:52:24;29.30;52.60
53645;DHT22;39547;45.554;12.068;2022-08-21T09:58:30;29.40;50.70
53645;DHT22;39547;45.554;12.068;2022-08-21T10:04:33;29.60;51.60
53645;DHT22;39547;45.554;12.068;2022-08-21T10:10:36;29.80;51.90
53645;DHT22;39547;45.554;12.068;2022-08-21T10:35:09;30.30;48.60
53645;DHT22;39547;45.554;12.068;2022-08-21T10:47:47;30.80;47.10
53645;DHT22;39547;45.554;12.068;2022-08-21T10:59:57;31.00;46.30
53645;DHT22;39547;45.554;12.068;2022-08-21T11:06:02;31.20;43.10
53645;DHT22;39547;45.554;12.068;2022-08-21T11:12:18;31.20;42.40
53645;DHT22;39547;45.554;12.068;2022-08-21T11:18:26;31.20;42.40
53645;DHT22;39547;45.554;12.068;2022-08-21T11:24:30;31.30;40.00
53645;DHT22;39547;45.554;12.068;2022-08-21T11:30:39;31.70;42.60
53645;DHT22;39547;45.554;12.068;2022-08-21T11:49:32;32.40;42.50
53645;DHT22;39547;45.554;12.068;2022-08-21T11:55:48;32.50;42.50
53645;DHT22;39547;45.554;12.068;2022-08-21T12:01:51;32.70;40.40
53645;DHT22;39547;45.554;12.068;2022-08-21T12:08:02;32.80;39.50
53645;DHT22;39547;45.554;12.068;2022-08-21T12:26:48;34.90;38.40
53645;DHT22;39547;45.554;12.068;2022-08-21T12:33:03;35.80;37.50
53645;DHT22;39547;45.554;12.068;2022-08-21T12:39:05;36.60;37.20
53645;DHT22;39547;45.554;12.068;2022-08-21T12:51:24;36.20;36.20
53645;DHT22;39547;45.554;12.068;2022-08-21T12:57:27;37.20;35.70
53645;DHT22;39547;45.554;12.068;2022-08-21T13:03:29;35.90;36.80
53645;DHT22;39547;45.554;12.068;2022-08-21T13:09:31;34.00;39.90
53645;DHT22;39547;45.554;12.068;2022-08-21T13:15:34;34.30;41.50
53645;DHT22;39547;45.554;12.068;2022-08-21T13:21:39;36.30;40.20
53645;DHT22;39547;45.554;12.068;2022-08-21T13:27:41;37.20;38.90
53645;DHT22;39547;45.554;12.068;2022-08-21T13:33:43;38.40;37.20
53645;DHT22;39547;45.554;12.068;2022-08-21T13:39:48;39.40;35.60
53645;DHT22;39547;45.554;12.068;2022-08-21T13:45:51;40.00;32.70
53645;DHT22;39547;45.554;12.068;2022-08-21T13:51:53;40.60;33.40
53645;DHT22;39547;45.554;12.068;2022-08-21T13:58:01;41.30;31.50
53645;DHT22;39547;45.554;12.068;2022-08-21T14:04:05;41.80;30.10
53645;DHT22;39547;45.554;12.068;2022-08-21T14:10:13;42.10;28.60
53645;DHT22;39547;45.554;12.068;2022-08-21T14:16:19;42.30;29.00
53645;DHT22;39547;45.554;12.068;2022-08-21T14:22:22;42.70;28.50
53645;DHT22;39547;45.554;12.068;2022-08-21T14:34:27;42.80;27.00
53645;DHT22;39547;45.554;12.068;2022-08-21T14:40:29;43.10;24.70
53645;DHT22;39547;45.554;12.068;2022-08-21T14:46:30;42.90;25.40
53645;DHT22;39547;45.554;12.068;2022-08-21T14:52:32;43.20;25.90
53645;DHT22;39547;45.554;12.068;2022-08-21T14:58:38;43.40;25.70
53645;DHT22;39547;45.554;12.068;2022-08-21T15:04:40;43.60;25.00
53645;DHT22;39547;45.554;12.068;2022-08-21T15:10:42;43.40;25.10
53645;DHT22;39547;45.554;12.068;2022-08-21T15:16:44;41.60;26.40
53645;DHT22;39547;45.554;12.068;2022-08-21T15:22:45;39.50;28.70
53645;DHT22;39547;45.554;12.068;2022-08-21T15:28:46;37.90;30.00
53645;DHT22;39547;45.554;12.068;2022-08-21T15:34:47;36.10;32.80
53645;DHT22;39547;45.554;12.068;2022-08-21T15:40:49;34.70;35.70
53645;DHT22;39547;45.554;12.068;2022-08-21T15:46:50;33.60;37.00
53645;DHT22;39547;45.554;12.068;2022-08-21T15:52:52;32.90;36.60
53645;DHT22;39547;45.554;12.068;2022-08-21T15:58:57;32.60;37.30
53645;DHT22;39547;45.554;12.068;2022-08-21T16:04:59;32.70;37.40
53645;DHT22;39547;45.554;12.068;2022-08-21T16:11:00;32.40;37.70
53645;DHT22;39547;45.554;12.068;2022-08-21T16:17:06;32.00;38.00
53645;DHT22;39547;45.554;12.068;2022-08-21T16:23:07;31.70;39.30
53645;DHT22;39547;45.554;12.068;2022-08-21T16:29:08;32.10;38.60
53645;DHT22;39547;45.554;12.068;2022-08-21T16:35:11;32.00;38.40
53645;DHT22;39547;45.554;12.068;2022-08-21T16:41:15;31.70;38.80
53645;DHT22;39547;45.554;12.068;2022-08-21T16:47:18;31.40;39.50
53645;DHT22;39547;45.554;12.068;2022-08-21T16:53:19;31.60;39.90
53645;DHT22;39547;45.554;12.068;2022-08-21T16:59:20;32.30;40.20
53645;DHT22;39547;45.554;12.068;2022-08-21T17:05:21;33.20;40.40
53645;DHT22;39547;45.554;12.068;2022-08-21T17:11:27;33.10;41.30
53645;DHT22;39547;45.554;12.068;2022-08-21T17:17:28;32.30;43.20
53645;DHT22;39547;45.554;12.068;2022-08-21T17:23:30;31.60;44.80
53645;DHT22;39547;45.554;12.068;2022-08-21T17:29:33;31.10;46.10
53645;DHT22;39547;45.554;12.068;2022-08-21T17:35:34;30.70;46.80
53645;DHT22;39547;45.554;12.068;2022-08-21T17:41:36;30.20;47.10
53645;DHT22;39547;45.554;12.068;2022-08-21T17:47:37;29.90;47.70
53645;DHT22;39547;45.554;12.068;2022-08-21T17:53:39;29.70;48.10
53645;DHT22;39547;45.554;12.068;2022-08-21T17:59:40;29.50;48.40
53645;DHT22;39547;45.554;12.068;2022-08-21T18:05:42;29.30;48.60
53645;DHT22;39547;45.554;12.068;2022-08-21T18:11:43;29.20;49.40
53645;DHT22;39547;45.554;12.068;2022-08-21T18:17:46;29.00;49.60
53645;DHT22;39547;45.554;12.068;2022-08-21T18:23:47;28.90;50.80
53645;DHT22;39547;45.554;12.068;2022-08-21T18:29:49;28.80;52.20
53645;DHT22;39547;45.554;12.068;2022-08-21T18:35:52;28.70;52.10
53645;DHT22;39547;45.554;12.068;2022-08-21T18:41:54;28.50;52.30
53645;DHT22;39547;45.554;12.068;2022-08-21T18:47:55;28.50;52.70
53645;DHT22;39547;45.554;12.068;2022-08-21T18:53:57;28.40;52.90
53645;DHT22;39547;45.554;12.068;2022-08-21T18:59:59;28.30;52.60
53645;DHT22;39547;45.554;12.068;2022-08-21T19:06:00;28.30;53.20
53645;DHT22;39547;45.554;12.068;2022-08-21T19:12:02;28.30;53.20
53645;DHT22;39547;45.554;12.068;2022-08-21T19:18:04;28.20;54.00
53645;DHT22;39547;45.554;12.068;2022-08-21T19:24:06;28.10;55.00
53645;DHT22;39547;45.554;12.068;2022-08-21T19:30:08;28.00;54.90
53645;DHT22;39547;45.554;12.068;2022-08-21T19:36:10;27.90;54.70
53645;DHT22;39547;45.554;12.068;2022-08-21T19:42:12;27.90;55.30
53645;DHT22;39547;45.554;12.068;2022-08-21T19:48:13;27.80;56.10
53645;DHT22;39547;45.554;12.068;2022-08-21T19:54:19;27.80;56.60
53645;DHT22;39547;45.554;12.068;2022-08-21T20:00:20;27.70;56.40
53645;DHT22;39547;45.554;12.068;2022-08-21T20:06:22;27.70;56.30
53645;DHT22;39547;45.554;12.068;2022-08-21T20:12:24;27.60;57.10
53645;DHT22;39547;45.554;12.068;2022-08-21T20:18:26;27.50;58.10
53645;DHT22;39547;45.554;12.068;2022-08-21T20:24:27;27.40;57.80
53645;DHT22;39547;45.554;12.068;2022-08-21T20:30:29;27.40;58.10
53645;DHT22;39547;45.554;12.068;2022-08-21T20:36:30;27.30;58.80
53645;DHT22;39547;45.554;12.068;2022-08-21T20:42:32;27.20;59.20
53645;DHT22;39547;45.554;12.068;2022-08-21T20:48:34;27.20;59.60
53645;DHT22;39547;45.554;12.068;2022-08-21T20:54:43;27.10;59.70
53645;DHT22;39547;45.554;12.068;2022-08-21T21:00:45;27.00;60.60
53645;DHT22;39547;45.554;12.068;2022-08-21T21:06:47;26.90;62.20
53645;DHT22;39547;45.554;12.068;2022-08-21T21:12:57;26.80;62.90
53645;DHT22;39547;45.554;12.068;2022-08-21T21:19:05;26.60;63.40
53645;DHT22;39547;45.554;12.068;2022-08-21T21:25:13;26.30;68.10
53645;DHT22;39547;45.554;12.068;2022-08-21T21:31:16;25.80;67.40
53645;DHT22;39547;45.554;12.068;2022-08-21T21:43:55;25.70;68.20
53645;DHT22;39547;45.554;12.068;2022-08-21T21:50:05;25.60;68.10
53645;DHT22;39547;45.554;12.068;2022-08-21T22:08:44;25.30;68.90
53645;DHT22;39547;45.554;12.068;2022-08-21T22:14:47;25.30;69.30
53645;DHT22;39547;45.554;12.068;2022-08-21T22:20:54;25.20;69.60
53645;DHT22;39547;45.554;12.068;2022-08-21T22:27:00;25.00;70.40
53645;DHT22;39547;45.554;12.068;2022-08-21T22:33:08;24.80;70.50
53645;DHT22;39547;45.554;12.068;2022-08-21T22:39:14;24.80;71.00
53645;DHT22;39547;45.554;12.068;2022-08-21T22:45:17;24.80;70.70
53645;DHT22;39547;45.554;12.068;2022-08-21T22:51:29;24.80;71.30
53645;DHT22;39547;45.554;12.068;2022-08-21T22:57:32;24.70;72.20
53645;DHT22;39547;45.554;12.068;2022-08-21T23:03:54;24.50;71.50
53645;DHT22;39547;45.554;12.068;2022-08-21T23:09:56;24.50;71.60
53645;DHT22;39547;45.554;12.068;2022-08-21T23:16:03;24.50;71.40
53645;DHT22;39547;45.554;12.068;2022-08-21T23:34:42;24.20;71.60
53645;DHT22;39547;45.554;12.068;2022-08-21T23:40:49;24.20;71.60
53645;DHT22;39547;45.554;12.068;2022-08-21T23:47:00;24.20;71.70
